createdAt,value
2018-02-21T00:01:34.314Z,16.87
2018-02-21T00:04:02.544Z,16.87
2018-02-21T00:06:30.030Z,18.73
2018-02-21T00:08:57.502Z,16.00
2018-02-21T00:11:25.745Z,18.43
2018-02-21T00:13:53.210Z,19.03
2018-02-21T00:16:20.692Z,17.33
2018-02-21T00:18:48.922Z,19.07
2018-02-21T00:21:16.408Z,17.73
2018-02-21T00:23:43.898Z,17.37
2018-02-21T00:26:11.382Z,18.87
2018-02-21T00:28:38.854Z,17.80
2018-02-21T00:31:06.349Z,17.83
2018-02-21T00:33:34.579Z,18.47
2018-02-21T00:36:02.101Z,18.17
2018-02-21T00:38:30.344Z,18.67
2018-02-21T00:40:57.816Z,18.83
2018-02-21T00:43:26.057Z,18.50
2018-02-21T00:45:53.538Z,20.90
2018-02-21T00:48:21.005Z,18.90
2018-02-21T00:50:49.258Z,19.60
2018-02-21T00:53:16.737Z,19.30
2018-02-21T00:55:44.209Z,19.57
2018-02-21T00:58:12.454Z,20.80
2018-02-21T01:00:39.945Z,21.30
2018-02-21T01:03:07.424Z,21.67
2018-02-21T01:05:34.917Z,21.00
2018-02-21T01:08:02.393Z,20.20
2018-02-21T01:10:29.878Z,20.40
2018-02-21T01:12:57.352Z,19.93
2018-02-21T01:15:24.836Z,20.50
2018-02-21T01:17:52.314Z,23.47
2018-02-21T01:20:19.813Z,20.83
2018-02-21T01:22:47.292Z,20.40
2018-02-21T01:25:14.777Z,21.43
2018-02-21T01:27:43.014Z,21.37
2018-02-21T01:30:10.503Z,21.70
2018-02-21T01:32:37.982Z,20.43
2018-02-21T01:35:05.448Z,21.00
2018-02-21T01:37:32.928Z,21.20
2018-02-21T01:40:01.156Z,20.00
2018-02-21T01:42:28.631Z,19.73
2018-02-21T01:44:56.116Z,21.17
2018-02-21T01:47:24.365Z,21.60
2018-02-21T01:49:51.844Z,21.30
2018-02-21T01:52:20.088Z,21.70
2018-02-21T01:54:48.321Z,21.77
2018-02-21T01:57:15.815Z,21.10
2018-02-21T01:59:43.272Z,21.60
2018-02-21T02:02:10.748Z,22.77
2018-02-21T02:04:38.228Z,21.87
2018-02-21T02:07:06.472Z,23.03
2018-02-21T02:09:33.948Z,21.30
2018-02-21T02:12:01.426Z,21.40
2018-02-21T02:14:29.660Z,23.60
2018-02-21T02:16:57.144Z,21.60
2018-02-21T02:19:24.609Z,21.03
2018-02-21T02:21:52.856Z,24.63
2018-02-21T02:24:20.319Z,23.30
2018-02-21T02:26:47.805Z,23.10
2018-02-21T02:29:16.023Z,22.20
2018-02-21T02:31:43.497Z,23.97
2018-02-21T02:34:10.951Z,23.03
2018-02-21T02:36:38.426Z,22.90
2018-02-21T02:39:17.545Z,21.90
2018-02-21T02:41:45.005Z,25.00
2018-02-21T02:44:12.456Z,21.77
2018-02-21T02:46:39.925Z,21.57
2018-02-21T02:49:07.385Z,22.17
2018-02-21T02:51:34.851Z,21.23
2018-02-21T02:54:02.318Z,21.70
2018-02-21T02:56:30.557Z,23.00
2018-02-21T02:58:58.784Z,22.27
2018-02-21T03:01:27.066Z,22.90
2018-02-21T03:03:54.482Z,22.63
2018-02-21T03:06:21.947Z,23.57
2018-02-21T03:08:49.407Z,23.83
2018-02-21T03:11:16.876Z,24.03
2018-02-21T03:13:44.343Z,24.17
2018-02-21T03:16:12.573Z,23.80
2018-02-21T03:18:40.048Z,22.93
2018-02-21T03:21:07.500Z,22.30
2018-02-21T03:23:34.967Z,24.37
2018-02-21T03:26:02.429Z,25.03
2018-02-21T03:28:29.899Z,25.17
2018-02-21T03:30:58.130Z,23.43
2018-02-21T03:33:25.591Z,23.13
2018-02-21T03:35:53.061Z,23.83
2018-02-21T03:38:20.528Z,24.03
2018-02-21T03:40:48.039Z,23.80
2018-02-21T03:43:15.508Z,24.30
2018-02-21T03:45:42.968Z,23.40
2018-02-21T03:48:10.437Z,22.27
2018-02-21T03:50:38.656Z,25.83
2018-02-21T03:53:06.895Z,23.97
2018-02-21T03:55:34.344Z,22.60
2018-02-21T03:58:01.811Z,24.60
2018-02-21T04:00:29.275Z,23.07
2018-02-21T04:02:56.734Z,23.73
2018-02-21T04:05:24.195Z,24.40
2018-02-21T04:07:51.663Z,23.30
2018-02-21T04:10:19.121Z,22.87
2018-02-21T04:12:46.589Z,23.83
2018-02-21T04:15:14.815Z,23.20
2018-02-21T04:17:42.278Z,23.50
2018-02-21T04:20:09.738Z,23.77
2018-02-21T04:22:37.204Z,24.17
2018-02-21T04:25:04.660Z,23.30
2018-02-21T04:27:32.126Z,24.77
2018-02-21T04:29:59.575Z,20.83
2018-02-21T04:32:27.045Z,20.33
2018-02-21T04:34:54.499Z,19.07
2018-02-21T04:37:21.963Z,18.57
2018-02-21T04:39:49.427Z,16.43
2018-02-21T04:42:16.896Z,15.17
2018-02-21T04:44:45.130Z,15.67
2018-02-21T04:47:12.591Z,13.70
2018-02-21T04:49:40.061Z,13.90
2018-02-21T04:52:07.521Z,12.33
2018-02-21T04:54:35.802Z,12.37
2018-02-21T04:57:09.049Z,13.30
2018-02-21T04:59:37.431Z,12.33
2018-02-21T05:02:04.886Z,14.20
2018-02-21T05:04:32.360Z,14.93
2018-02-21T05:06:59.831Z,14.00
2018-02-21T05:09:27.297Z,13.83
2018-02-21T05:11:54.762Z,12.40
2018-02-21T05:14:22.223Z,14.10
2018-02-21T05:16:49.681Z,13.10
2018-02-21T05:19:17.154Z,13.97
2018-02-21T05:21:45.371Z,13.83
2018-02-21T05:24:12.849Z,13.10
2018-02-21T05:26:40.310Z,14.87
2018-02-21T05:29:07.780Z,14.33
2018-02-21T05:31:35.264Z,16.00
2018-02-21T05:34:03.497Z,14.87
2018-02-21T05:36:30.967Z,15.43
2018-02-21T05:38:58.441Z,15.80
2018-02-21T05:41:25.952Z,14.90
2018-02-21T05:43:53.430Z,14.97
2018-02-21T05:46:20.899Z,14.90
2018-02-21T05:48:48.471Z,15.80
2018-02-21T05:51:16.718Z,19.13
2018-02-21T05:53:44.393Z,18.40
2018-02-21T05:56:11.886Z,21.03
2018-02-21T05:58:40.128Z,19.83
2018-02-21T06:01:07.603Z,20.40
2018-02-21T06:03:35.854Z,22.80
2018-02-21T06:06:03.390Z,21.20
2018-02-21T06:08:30.940Z,21.70
2018-02-21T06:10:58.402Z,21.97
2018-02-21T06:13:25.900Z,22.43
2018-02-21T06:15:53.388Z,21.50
2018-02-21T06:18:21.705Z,19.90
2018-02-21T06:20:49.184Z,18.23
2018-02-21T06:23:16.686Z,17.90
2018-02-21T06:25:44.225Z,17.10
2018-02-21T06:28:12.522Z,19.13
2018-02-21T06:30:40.181Z,18.33
2018-02-21T06:33:07.717Z,20.40
2018-02-21T06:35:35.221Z,23.13
2018-02-21T06:38:02.674Z,21.20
2018-02-21T06:40:30.149Z,22.10
2018-02-21T06:42:57.630Z,21.33
2018-02-21T06:45:25.102Z,20.70
2018-02-21T06:47:52.555Z,21.50
2018-02-21T06:50:20.034Z,20.97
2018-02-21T06:52:48.257Z,20.50
2018-02-21T06:55:15.731Z,22.50
2018-02-21T06:57:43.192Z,23.33
2018-02-21T07:00:10.796Z,22.20
2018-02-21T07:02:38.322Z,20.00
2018-02-21T07:05:05.787Z,21.30
2018-02-21T07:07:33.252Z,22.33
2018-02-21T07:10:00.717Z,20.50
2018-02-21T07:12:28.944Z,20.00
2018-02-21T07:14:56.441Z,20.87
2018-02-21T07:17:23.896Z,21.93
2018-02-21T07:19:51.376Z,22.80
2018-02-21T07:22:19.588Z,20.27
2018-02-21T07:24:47.071Z,22.07
2018-02-21T07:27:14.544Z,23.67
2018-02-21T07:29:42.104Z,22.20
2018-02-21T07:32:09.564Z,23.97
2018-02-21T07:34:37.028Z,23.47
2018-02-21T07:37:05.248Z,23.67
2018-02-21T07:39:32.716Z,22.53
2018-02-21T07:42:00.177Z,23.20
2018-02-21T07:44:27.644Z,22.17
2018-02-21T07:46:55.109Z,23.10
2018-02-21T07:49:22.584Z,23.63
2018-02-21T07:51:50.036Z,22.90
2018-02-21T07:54:17.573Z,23.07
2018-02-21T07:56:44.985Z,24.17
2018-02-21T07:59:12.453Z,22.70
2018-02-21T08:01:39.914Z,21.60
2018-02-21T08:04:07.390Z,21.50
2018-02-21T08:06:34.899Z,21.90
2018-02-21T08:09:02.316Z,23.17
2018-02-21T08:11:29.792Z,22.80
2018-02-21T08:13:57.239Z,23.83
2018-02-21T08:16:24.704Z,20.40
2018-02-21T08:18:52.166Z,21.13
2018-02-21T08:21:19.631Z,20.60
2018-02-21T08:23:47.083Z,20.60
2018-02-21T08:26:14.547Z,18.70
2018-02-21T08:28:42.009Z,17.77
2018-02-21T08:31:10.234Z,16.77
2018-02-21T08:33:37.700Z,19.07
2018-02-21T08:36:05.167Z,19.20
2018-02-21T08:38:32.630Z,18.87
2018-02-21T08:41:00.101Z,17.07
2018-02-21T08:43:27.553Z,15.87
2018-02-21T08:45:55.019Z,13.57
2018-02-21T08:48:22.477Z,14.50
2018-02-21T08:50:49.949Z,14.47
2018-02-21T08:53:18.171Z,14.80
2018-02-21T08:55:45.637Z,14.30
2018-02-21T08:58:13.108Z,16.20
2018-02-21T09:00:40.566Z,14.33
2018-02-21T09:05:42.844Z,15.77
2018-02-21T09:08:10.303Z,14.30
2018-02-21T09:10:37.776Z,14.20
2018-02-21T09:13:06.292Z,14.60
2018-02-21T09:15:33.771Z,14.73
2018-02-21T09:18:01.226Z,15.17
2018-02-21T09:20:28.692Z,15.20
2018-02-21T09:22:56.166Z,15.10
2018-02-21T09:25:23.637Z,14.10
2018-02-21T09:27:51.092Z,13.50
2018-02-21T09:30:18.573Z,13.40
2018-02-21T09:32:46.037Z,15.17
2018-02-21T09:35:13.510Z,14.60
2018-02-21T09:37:41.746Z,14.70
2018-02-21T09:40:09.248Z,14.50
2018-02-21T09:42:37.469Z,15.57
2018-02-21T09:45:04.986Z,17.80
2018-02-21T09:47:32.470Z,17.40
2018-02-21T09:49:59.943Z,17.80
2018-02-21T09:52:27.437Z,17.97
2018-02-21T09:54:55.730Z,17.60
2018-02-21T09:57:23.255Z,19.70
2018-02-21T09:59:50.755Z,19.70
2018-02-21T10:02:18.288Z,19.20
2018-02-21T10:04:46.571Z,19.57
2018-02-21T10:07:14.862Z,20.60
2018-02-21T10:09:42.414Z,19.40
2018-02-21T10:12:10.729Z,18.53
2018-02-21T10:14:38.268Z,19.40
2018-02-21T10:17:05.786Z,19.00
2018-02-21T10:19:33.315Z,20.57
2018-02-21T10:22:00.849Z,19.83
2018-02-21T10:24:28.366Z,19.97
2018-02-21T10:26:55.901Z,19.53
2018-02-21T10:29:23.413Z,19.47
2018-02-21T10:31:50.948Z,20.00
2018-02-21T10:34:19.261Z,18.57
2018-02-21T10:36:46.777Z,18.77
2018-02-21T10:39:14.277Z,18.20
2018-02-21T10:41:41.821Z,18.33
2018-02-21T10:44:09.328Z,17.13
2018-02-21T10:46:37.622Z,19.07
2018-02-21T10:49:05.139Z,18.07
2018-02-21T10:51:32.655Z,19.07
2018-02-21T10:54:00.177Z,17.93
2018-02-21T10:56:27.686Z,18.97
2018-02-21T10:58:55.950Z,18.70
2018-02-21T11:01:25.838Z,17.20
2018-02-21T11:03:53.316Z,17.07
2018-02-21T11:06:20.814Z,16.37
2018-02-21T11:08:48.298Z,17.30
2018-02-21T11:11:15.814Z,17.77
2018-02-21T11:13:44.051Z,18.10
2018-02-21T11:16:11.534Z,17.97
2018-02-21T11:18:39.776Z,16.90
2018-02-21T11:21:07.256Z,16.67
2018-02-21T11:23:34.804Z,15.83
2018-02-21T11:26:02.223Z,17.87
2018-02-21T11:28:29.698Z,18.10
2018-02-21T11:30:57.176Z,16.83
2018-02-21T11:33:24.660Z,16.20
2018-02-21T11:35:52.909Z,17.40
2018-02-21T11:38:20.401Z,16.40
2018-02-21T11:40:48.646Z,17.47
2018-02-21T11:43:16.121Z,16.30
2018-02-21T11:45:43.589Z,15.40
2018-02-21T11:48:11.825Z,16.00
2018-02-21T11:50:39.317Z,16.20
2018-02-21T11:53:07.615Z,17.90
2018-02-21T11:55:35.057Z,16.57
2018-02-21T11:58:02.555Z,15.60
2018-02-21T12:00:30.042Z,14.57
2018-02-21T12:02:57.522Z,17.13
2018-02-21T12:05:25.764Z,15.70
2018-02-21T12:07:53.246Z,16.70
2018-02-21T12:10:20.733Z,17.73
2018-02-21T12:12:48.968Z,17.20
2018-02-21T12:15:16.449Z,17.87
2018-02-21T12:17:44.702Z,16.60
2018-02-21T12:20:12.175Z,17.90
2018-02-21T12:22:39.661Z,18.37
2018-02-21T12:25:07.139Z,17.10
2018-02-21T12:27:34.618Z,18.60
2018-02-21T12:30:02.100Z,17.07
2018-02-21T12:35:26.249Z,19.90
2018-02-21T12:37:53.719Z,18.90
2018-02-21T12:40:26.991Z,18.47
2018-02-21T12:42:54.461Z,19.00
2018-02-21T12:45:21.929Z,19.30
2018-02-21T12:47:49.396Z,18.50
2018-02-21T12:50:16.885Z,16.77
2018-02-21T12:52:44.343Z,18.10
2018-02-21T12:55:11.803Z,18.50
2018-02-21T12:57:40.042Z,17.57
2018-02-21T13:00:07.537Z,16.70
2018-02-21T13:02:34.973Z,18.30
2018-02-21T13:05:02.454Z,21.03
2018-02-21T13:07:30.694Z,18.87
2018-02-21T13:09:58.157Z,18.80
2018-02-21T13:12:25.626Z,19.40
2018-02-21T13:14:53.101Z,20.90
2018-02-21T13:17:21.333Z,17.03
2018-02-21T13:19:48.790Z,16.17
2018-02-21T13:22:16.259Z,16.93
2018-02-21T13:24:43.716Z,16.40
2018-02-21T13:27:11.180Z,16.53
2018-02-21T13:29:38.659Z,17.73
2018-02-21T13:32:06.123Z,16.23
2018-02-21T13:34:34.355Z,18.60
2018-02-21T13:37:01.830Z,16.07
2018-02-21T13:39:29.296Z,21.20
2018-02-21T13:41:56.754Z,21.70
2018-02-21T13:44:24.231Z,20.37
2018-02-21T13:46:52.458Z,22.40
2018-02-21T13:49:19.929Z,22.00
2018-02-21T13:51:47.388Z,21.00
2018-02-21T13:54:14.849Z,21.67
2018-02-21T13:56:42.325Z,23.73
2018-02-21T13:59:09.788Z,21.80
2018-02-21T14:01:37.251Z,21.30
2018-02-21T14:04:05.488Z,21.60
2018-02-21T14:06:32.956Z,23.07
2018-02-21T14:09:00.426Z,24.30
2018-02-21T14:11:27.900Z,23.57
2018-02-21T14:13:56.147Z,22.13
2018-02-21T14:16:23.601Z,21.20
2018-02-21T14:18:51.067Z,24.20
2018-02-21T14:21:18.520Z,23.53
2018-02-21T14:23:46.057Z,22.43
2018-02-21T14:26:13.527Z,21.83
2018-02-21T14:28:41.005Z,22.70
2018-02-21T14:31:08.478Z,24.33
2018-02-21T14:33:36.720Z,24.80
2018-02-21T14:36:04.204Z,23.43
2018-02-21T14:38:31.673Z,24.63
2018-02-21T14:40:59.908Z,22.80
2018-02-21T14:43:27.398Z,24.77
2018-02-21T14:45:54.876Z,24.27
2018-02-21T14:48:22.373Z,24.30
2018-02-21T14:50:49.851Z,25.73
2018-02-21T14:53:17.333Z,24.83
2018-02-21T14:55:45.593Z,26.03
2018-02-21T14:58:13.085Z,23.83
2018-02-21T15:00:41.473Z,25.33
2018-02-21T15:03:08.953Z,26.00
2018-02-21T15:05:36.446Z,27.70
2018-02-21T15:08:04.224Z,27.40
2018-02-21T15:10:32.525Z,26.07
2018-02-21T15:13:00.077Z,25.83
2018-02-21T15:15:28.563Z,27.03
2018-02-21T15:17:56.130Z,26.40
2018-02-21T15:20:23.668Z,27.10
2018-02-21T15:22:52.002Z,27.07
2018-02-21T15:25:19.524Z,26.77
2018-02-21T15:27:47.133Z,25.70
2018-02-21T15:30:14.930Z,26.97
2018-02-21T15:32:42.602Z,25.60
2018-02-21T15:35:10.905Z,27.53
2018-02-21T15:37:38.449Z,27.37
2018-02-21T15:40:06.012Z,26.40
2018-02-21T15:42:33.573Z,27.27
2018-02-21T15:45:01.117Z,26.23
2018-02-21T15:47:28.779Z,26.97
2018-02-21T15:49:56.549Z,25.20
2018-02-21T15:52:24.098Z,27.83
2018-02-21T15:54:52.432Z,28.10
2018-02-21T15:57:19.951Z,27.80
2018-02-21T15:59:47.530Z,29.33
2018-02-21T16:02:15.066Z,29.93
2018-02-21T16:04:42.601Z,29.60
2018-02-21T16:07:10.922Z,31.50
2018-02-21T16:09:38.549Z,27.80
2018-02-21T16:12:06.867Z,27.50
2018-02-21T16:14:34.388Z,27.00
2018-02-21T16:17:01.916Z,27.63
2018-02-21T16:19:29.507Z,27.40
2018-02-21T16:21:57.054Z,27.43
2018-02-21T16:24:43.755Z,27.83
2018-02-21T16:27:12.097Z,27.27
2018-02-21T16:29:39.625Z,27.57
2018-02-21T16:32:07.221Z,27.47
2018-02-21T16:34:34.741Z,27.20
2018-02-21T16:37:02.330Z,26.53
2018-02-21T16:39:30.696Z,26.17
2018-02-21T16:41:58.207Z,24.20
2018-02-21T16:44:25.737Z,27.47
2018-02-21T16:46:53.324Z,24.27
2018-02-21T16:49:20.853Z,25.23
2018-02-21T16:51:48.411Z,25.73
2018-02-21T16:54:16.894Z,26.97
2018-02-21T16:56:44.480Z,25.80
2018-02-21T16:59:12.050Z,26.30
2018-02-21T17:01:39.545Z,27.90
2018-02-21T17:04:07.170Z,27.80
2018-02-21T17:06:34.693Z,26.07
2018-02-21T17:09:02.233Z,27.90
2018-02-21T17:11:29.754Z,27.97
2018-02-21T17:13:58.077Z,29.87
2018-02-21T17:18:59.533Z,29.07
2018-02-21T17:21:27.104Z,31.73
2018-02-21T17:23:54.633Z,32.60
2018-02-21T17:26:44.979Z,30.80
2018-02-21T17:29:15.618Z,30.77
2018-02-21T17:31:48.676Z,28.27
2018-02-21T17:34:31.653Z,28.57
2018-02-21T17:37:01.873Z,31.87
2018-02-21T17:39:41.315Z,31.13
2018-02-21T17:42:45.962Z,30.50
2018-02-21T17:48:21.535Z,35.30
2018-02-21T17:50:56.691Z,31.30
2018-02-21T17:53:31.848Z,34.17
2018-02-21T17:55:59.651Z,31.70
2018-02-21T17:58:27.206Z,32.87
2018-02-21T18:00:54.765Z,34.50
2018-02-21T18:03:22.297Z,30.67
2018-02-21T18:05:49.873Z,30.17
2018-02-21T18:08:17.424Z,32.17
2018-02-21T18:10:45.126Z,31.13
2018-02-21T18:13:12.776Z,32.73
2018-02-21T18:15:40.650Z,28.90
2018-02-21T18:18:08.311Z,33.13
2018-02-21T18:20:35.919Z,32.77
2018-02-21T18:23:03.535Z,34.20
2018-02-21T18:25:31.079Z,31.47
2018-02-21T18:27:59.376Z,33.40
2018-02-21T18:30:26.941Z,32.67
2018-02-21T18:32:54.464Z,34.77
2018-02-21T18:35:22.046Z,35.23
2018-02-21T18:37:49.565Z,34.17
2018-02-21T18:40:17.096Z,34.40
2018-02-21T18:42:45.440Z,34.27
2018-02-21T18:45:12.957Z,34.80
2018-02-21T18:47:40.484Z,37.40
2018-02-21T18:50:08.008Z,34.87
2018-02-21T18:52:35.576Z,36.70
2018-02-21T18:57:37.106Z,37.60
2018-02-21T19:00:04.644Z,38.50
2018-02-21T19:02:32.885Z,34.80
2018-02-21T19:05:00.530Z,35.37
2018-02-21T19:07:28.047Z,34.47
2018-02-21T19:09:56.353Z,35.20
2018-02-21T19:12:23.899Z,39.10
2018-02-21T19:14:51.406Z,38.90
2018-02-21T19:17:18.930Z,37.40
2018-02-21T19:19:46.427Z,39.70
2018-02-21T19:22:13.979Z,34.60
2018-02-21T19:24:41.518Z,36.57
2018-02-21T19:27:09.041Z,36.30
2018-02-21T19:29:36.558Z,36.40
2018-02-21T19:32:04.142Z,38.37
2018-02-21T19:34:32.420Z,36.63
2018-02-21T19:37:00.716Z,30.57
2018-02-21T19:39:28.280Z,35.37
2018-02-21T19:41:55.816Z,36.97
2018-02-21T19:44:24.139Z,37.57
2018-02-21T19:46:51.750Z,36.13
2018-02-21T19:49:19.324Z,36.47
2018-02-21T19:51:47.620Z,37.60
2018-02-21T19:54:15.201Z,37.43
2018-02-21T19:56:42.767Z,36.03
2018-02-21T19:59:10.270Z,33.87
2018-02-21T20:01:38.606Z,33.30
2018-02-21T20:04:06.176Z,36.67
2018-02-21T20:06:33.752Z,31.70
2018-02-21T20:09:01.320Z,35.60
2018-02-21T20:11:29.008Z,30.70
2018-02-21T20:13:56.530Z,34.60
2018-02-21T20:16:24.084Z,35.20
2018-02-21T20:18:51.642Z,34.07
2018-02-21T20:21:19.189Z,33.20
2018-02-21T20:23:46.756Z,32.10
2018-02-21T20:26:14.332Z,32.73
2018-02-21T20:28:41.890Z,34.23
2018-02-21T20:31:09.482Z,31.43
2018-02-21T20:33:37.782Z,34.33
2018-02-21T20:36:05.370Z,35.60
2018-02-21T20:38:32.932Z,35.90
2018-02-21T20:41:00.486Z,36.30
2018-02-21T20:43:28.043Z,36.60
2018-02-21T20:45:55.548Z,35.00
2018-02-21T20:48:23.217Z,34.07
2018-02-21T20:50:50.896Z,34.63
2018-02-21T20:53:18.596Z,36.03
2018-02-21T20:55:46.413Z,36.17
2018-02-21T20:58:14.748Z,35.87
2018-02-21T21:00:42.347Z,37.70
2018-02-21T21:03:09.938Z,36.47
2018-02-21T21:05:37.482Z,37.30
2018-02-21T21:08:05.029Z,35.13
2018-02-21T21:10:33.344Z,34.47
2018-02-21T21:13:00.900Z,35.90
2018-02-21T21:15:28.469Z,34.97
2018-02-21T21:17:56.055Z,35.90
2018-02-21T21:20:23.629Z,32.97
2018-02-21T21:22:51.968Z,35.63
2018-02-21T21:25:19.547Z,34.97
2018-02-21T21:27:47.108Z,37.40
2018-02-21T21:30:14.690Z,32.00
2018-02-21T21:32:43.013Z,33.90
2018-02-21T21:35:10.536Z,33.70
2018-02-21T21:37:38.835Z,34.90
2018-02-21T21:40:06.426Z,32.83
2018-02-21T21:42:34.004Z,33.97
2018-02-21T21:45:01.587Z,36.17
2018-02-21T21:47:29.896Z,33.47
2018-02-21T21:49:57.453Z,31.30
2018-02-21T21:52:25.021Z,32.97
2018-02-21T21:54:52.566Z,34.80
2018-02-21T21:57:20.152Z,33.90
2018-02-21T21:59:47.708Z,33.27
2018-02-21T22:02:15.285Z,30.77
2018-02-21T22:04:42.869Z,32.20
2018-02-21T22:07:10.446Z,30.30
2018-02-21T22:09:38.784Z,34.57
2018-02-21T22:12:06.363Z,30.37
2018-02-21T22:14:33.931Z,30.40
2018-02-21T22:17:01.470Z,33.20
2018-02-21T22:19:29.038Z,29.67
2018-02-21T22:21:56.595Z,29.17
2018-02-21T22:24:24.142Z,30.67
2018-02-21T22:26:51.704Z,30.97
2018-02-21T22:29:19.300Z,29.40
2018-02-21T22:31:47.628Z,29.63
2018-02-21T22:34:15.194Z,32.63
2018-02-21T22:36:42.745Z,30.27
2018-02-21T22:39:11.087Z,30.37
2018-02-21T22:41:38.645Z,32.43
2018-02-21T22:44:06.176Z,31.77
2018-02-21T22:46:33.736Z,31.17
2018-02-21T22:49:01.279Z,31.07
2018-02-21T22:51:28.864Z,29.77
2018-02-21T22:53:56.402Z,29.40
2018-02-21T22:56:23.948Z,30.67
2018-02-21T22:58:51.513Z,29.13
2018-02-21T23:01:19.043Z,33.50
2018-02-21T23:03:46.622Z,29.17
2018-02-21T23:06:14.178Z,28.87
2018-02-21T23:08:41.750Z,31.07
2018-02-21T23:11:09.311Z,30.13
2018-02-21T23:13:36.905Z,28.63
2018-02-21T23:16:05.216Z,27.77
2018-02-21T23:18:32.790Z,31.00
2018-02-21T23:21:00.361Z,27.00
2018-02-21T23:23:27.895Z,28.37
2018-02-21T23:25:55.456Z,28.27
2018-02-21T23:28:23.012Z,27.43
2018-02-21T23:30:50.557Z,26.37
2018-02-21T23:33:18.150Z,26.97
2018-02-21T23:35:45.683Z,28.67
2018-02-21T23:38:13.238Z,28.83
2018-02-21T23:40:41.599Z,27.13
2018-02-21T23:43:09.122Z,24.57
2018-02-21T23:45:36.701Z,28.50
2018-02-21T23:48:04.238Z,27.63
2018-02-21T23:50:31.801Z,25.40
2018-02-21T23:52:59.347Z,25.77
2018-02-21T23:55:26.914Z,25.73
2018-02-21T23:57:54.480Z,26.30
